Kanesville, Utah
Current Conditions -  °F | °C
As of 7:53 PM on Monday 22 Dec 2014 (Local Time) from KOGD Reporting Station
Overcast Overcast  
Wind Chill: 25°   Ceiling: 6000
Heat Index: 34°   Visibility: 10mi
Dew Point: 31°   Wind: 13mph
Humidity: 89%   Direction: 340°NNW
Pressure: 30.11"   Gusts: NA
Location:  41.1783°N, 112.12°W
Report Text: KOGD 230253Z AUTO 34011KT 10SM OVC060 01/M01 A3011 RMK AO2 SNB17E32 SLP198 P0000 60000 T00111006 53030 TSNO
Loading
Personal Weather Stations






























Interactive Weather Map New forecast layout! Learn more

10-Day Weather Forecast

Advertisements
Track Severe Weather on mobile